sensor_id;sensor_type;location;lat;lon;timestamp;P1;P2;P0
76049;PMS7003;64967;50.234;19.224;2024-03-25T00:02:09;6.25;5.25;5.00
76049;PMS7003;64967;50.234;19.224;2024-03-25T00:04:35;5.75;3.50;3.00
76049;PMS7003;64967;50.234;19.224;2024-03-25T00:07:01;6.00;5.00;5.00
76049;PMS7003;64967;50.234;19.224;2024-03-25T00:09:27;5.00;3.50;3.00
76049;PMS7003;64967;50.234;19.224;2024-03-25T00:11:53;5.25;5.00;5.00
76049;PMS7003;64967;50.234;19.224;2024-03-25T00:14:21;5.25;5.25;3.00
76049;PMS7003;64967;50.234;19.224;2024-03-25T00:16:47;6.25;3.50;2.75
76049;PMS7003;64967;50.234;19.224;2024-03-25T00:19:13;4.00;3.00;2.50
76049;PMS7003;64967;50.234;19.224;2024-03-25T00:21:39;2.75;2.00;2.00
76049;PMS7003;64967;50.234;19.224;2024-03-25T00:24:05;5.25;3.00;3.00
76049;PMS7003;64967;50.234;19.224;2024-03-25T00:26:30;4.00;3.50;3.00
76049;PMS7003;64967;50.234;19.224;2024-03-25T00:28:56;2.25;1.75;1.00
76049;PMS7003;64967;50.234;19.224;2024-03-25T00:31:22;5.00;3.00;3.00
76049;PMS7003;64967;50.234;19.224;2024-03-25T00:33:47;5.75;5.00;4.50
76049;PMS7003;64967;50.234;19.224;2024-03-25T00:36:13;5.50;5.25;3.00
76049;PMS7003;64967;50.234;19.224;2024-03-25T00:38:38;6.00;6.00;3.00
76049;PMS7003;64967;50.234;19.224;2024-03-25T00:41:04;5.00;3.00;2.50
76049;PMS7003;64967;50.234;19.224;2024-03-25T00:43:30;2.75;2.75;2.50
76049;PMS7003;64967;50.234;19.224;2024-03-25T00:45:55;3.50;3.00;2.00
76049;PMS7003;64967;50.234;19.224;2024-03-25T00:48:22;2.00;2.00;2.00
76049;PMS7003;64967;50.234;19.224;2024-03-25T00:50:48;2.00;1.50;1.00
76049;PMS7003;64967;50.234;19.224;2024-03-25T00:53:14;1.50;1.25;1.00
76049;PMS7003;64967;50.234;19.224;2024-03-25T00:55:39;4.25;2.00;1.00
76049;PMS7003;64967;50.234;19.224;2024-03-25T00:58:05;2.00;1.00;1.00
76049;PMS7003;64967;50.234;19.224;2024-03-25T01:00:31;1.00;1.00;1.00
76049;PMS7003;64967;50.234;19.224;2024-03-25T01:02:57;2.25;2.00;1.00
76049;PMS7003;64967;50.234;19.224;2024-03-25T01:05:22;2.00;2.00;2.00
76049;PMS7003;64967;50.234;19.224;2024-03-25T01:07:48;2.00;2.00;2.00
76049;PMS7003;64967;50.234;19.224;2024-03-25T01:10:15;2.00;2.00;1.25
76049;PMS7003;64967;50.234;19.224;2024-03-25T01:12:41;3.00;2.00;1.25
76049;PMS7003;64967;50.234;19.224;2024-03-25T01:15:07;1.75;1.00;1.00
76049;PMS7003;64967;50.234;19.224;2024-03-25T01:17:35;3.50;2.50;2.50
76049;PMS7003;64967;50.234;19.224;2024-03-25T01:20:03;2.00;1.75;1.25
76049;PMS7003;64967;50.234;19.224;2024-03-25T01:22:34;2.50;2.00;2.00
76049;PMS7003;64967;50.234;19.224;2024-03-25T01:24:59;3.00;1.75;1.00
76049;PMS7003;64967;50.234;19.224;2024-03-25T01:27:25;2.25;1.00;1.00
76049;PMS7003;64967;50.234;19.224;2024-03-25T01:29:51;2.00;2.00;1.50
76049;PMS7003;64967;50.234;19.224;2024-03-25T01:32:19;2.50;2.00;1.00
76049;PMS7003;64967;50.234;19.224;2024-03-25T01:34:45;2.00;1.00;1.00
76049;PMS7003;64967;50.234;19.224;2024-03-25T01:37:10;2.00;2.00;2.00
76049;PMS7003;64967;50.234;19.224;2024-03-25T01:39:36;3.00;2.75;2.00
76049;PMS7003;64967;50.234;19.224;2024-03-25T01:42:04;2.00;2.00;1.50
76049;PMS7003;64967;50.234;19.224;2024-03-25T01:44:30;2.50;2.00;1.00
76049;PMS7003;64967;50.234;19.224;2024-03-25T01:46:55;3.00;2.00;2.00
76049;PMS7003;64967;50.234;19.224;2024-03-25T01:49:21;1.00;1.00;1.00
76049;PMS7003;64967;50.234;19.224;2024-03-25T01:51:46;1.25;1.25;1.00
76049;PMS7003;64967;50.234;19.224;2024-03-25T01:54:13;2.00;2.00;2.00
76049;PMS7003;64967;50.234;19.224;2024-03-25T01:56:41;2.00;2.00;1.00
76049;PMS7003;64967;50.234;19.224;2024-03-25T01:59:08;1.00;1.00;1.00
76049;PMS7003;64967;50.234;19.224;2024-03-25T02:01:35;2.00;2.00;1.00
76049;PMS7003;64967;50.234;19.224;2024-03-25T02:04:02;2.00;1.25;1.00
76049;PMS7003;64967;50.234;19.224;2024-03-25T02:06:27;2.00;1.25;1.25
76049;PMS7003;64967;50.234;19.224;2024-03-25T02:08:56;1.75;1.25;1.00
76049;PMS7003;64967;50.234;19.224;2024-03-25T02:11:23;2.00;1.75;1.00
76049;PMS7003;64967;50.234;19.224;2024-03-25T02:13:49;4.00;2.00;2.00
76049;PMS7003;64967;50.234;19.224;2024-03-25T02:16:16;2.25;2.00;2.00
76049;PMS7003;64967;50.234;19.224;2024-03-25T02:18:41;5.00;3.00;2.25
76049;PMS7003;64967;50.234;19.224;2024-03-25T02:21:07;1.00;1.00;1.00
76049;PMS7003;64967;50.234;19.224;2024-03-25T02:23:33;1.50;1.00;1.00
76049;PMS7003;64967;50.234;19.224;2024-03-25T02:26:01;1.00;1.00;1.00
76049;PMS7003;64967;50.234;19.224;2024-03-25T02:28:27;5.25;4.00;2.25
76049;PMS7003;64967;50.234;19.224;2024-03-25T02:30:53;3.00;3.00;2.50
76049;PMS7003;64967;50.234;19.224;2024-03-25T02:33:18;5.00;3.00;2.75
76049;PMS7003;64967;50.234;19.224;2024-03-25T02:35:44;3.00;3.00;2.00
76049;PMS7003;64967;50.234;19.224;2024-03-25T02:38:10;4.75;2.00;1.00
76049;PMS7003;64967;50.234;19.224;2024-03-25T02:40:36;3.00;3.00;2.00
76049;PMS7003;64967;50.234;19.224;2024-03-25T02:43:03;5.00;2.50;1.75
76049;PMS7003;64967;50.234;19.224;2024-03-25T02:45:29;3.50;2.00;2.00
76049;PMS7003;64967;50.234;19.224;2024-03-25T02:47:55;2.50;2.00;1.50
76049;PMS7003;64967;50.234;19.224;2024-03-25T02:50:20;3.00;3.00;2.00
76049;PMS7003;64967;50.234;19.224;2024-03-25T02:52:46;2.00;2.00;2.00
76049;PMS7003;64967;50.234;19.224;2024-03-25T02:55:11;5.00;2.50;2.00
76049;PMS7003;64967;50.234;19.224;2024-03-25T02:57:37;5.25;3.00;2.50
76049;PMS7003;64967;50.234;19.224;2024-03-25T03:00:02;5.25;3.00;3.00
76049;PMS7003;64967;50.234;19.224;2024-03-25T03:02:29;5.75;4.50;2.00
76049;PMS7003;64967;50.234;19.224;2024-03-25T03:04:55;2.00;2.00;1.00
76049;PMS7003;64967;50.234;19.224;2024-03-25T03:07:21;1.00;1.00;0.75
76049;PMS7003;64967;50.234;19.224;2024-03-25T03:09:46;3.00;3.00;3.00
76049;PMS7003;64967;50.234;19.224;2024-03-25T03:12:12;2.00;2.00;2.00
76049;PMS7003;64967;50.234;19.224;2024-03-25T03:14:37;6.25;3.00;2.25
76049;PMS7003;64967;50.234;19.224;2024-03-25T03:17:03;3.50;3.00;2.00
76049;PMS7003;64967;50.234;19.224;2024-03-25T03:19:30;5.25;5.25;2.50
76049;PMS7003;64967;50.234;19.224;2024-03-25T03:21:56;3.50;3.00;3.00
76049;PMS7003;64967;50.234;19.224;2024-03-25T03:24:22;5.00;2.00;1.00
76049;PMS7003;64967;50.234;19.224;2024-03-25T03:26:48;2.25;2.00;1.00
76049;PMS7003;64967;50.234;19.224;2024-03-25T03:29:14;3.00;2.00;1.00
76049;PMS7003;64967;50.234;19.224;2024-03-25T03:31:40;2.75;2.00;2.00
76049;PMS7003;64967;50.234;19.224;2024-03-25T03:34:05;2.25;2.00;1.75
76049;PMS7003;64967;50.234;19.224;2024-03-25T03:36:31;2.25;2.00;1.00
76049;PMS7003;64967;50.234;19.224;2024-03-25T03:38:57;1.00;1.00;0.75
76049;PMS7003;64967;50.234;19.224;2024-03-25T03:41:22;2.75;1.00;1.00
76049;PMS7003;64967;50.234;19.224;2024-03-25T03:43:48;0.75;0.75;0.75
76049;PMS7003;64967;50.234;19.224;2024-03-25T03:46:13;2.00;2.00;1.25
76049;PMS7003;64967;50.234;19.224;2024-03-25T03:48:39;2.00;1.00;1.00
76049;PMS7003;64967;50.234;19.224;2024-03-25T03:51:05;2.50;0.75;0.50
76049;PMS7003;64967;50.234;19.224;2024-03-25T03:53:32;0.25;0.25;0.25
76049;PMS7003;64967;50.234;19.224;2024-03-25T03:56:02;2.50;2.25;2.00
76049;PMS7003;64967;50.234;19.224;2024-03-25T03:58:32;1.00;1.00;1.00
76049;PMS7003;64967;50.234;19.224;2024-03-25T04:00:58;5.25;2.75;2.50
76049;PMS7003;64967;50.234;19.224;2024-03-25T04:03:24;1.00;1.00;1.00
76049;PMS7003;64967;50.234;19.224;2024-03-25T04:05:50;1.00;1.00;1.00
76049;PMS7003;64967;50.234;19.224;2024-03-25T04:08:16;1.75;1.00;1.00
76049;PMS7003;64967;50.234;19.224;2024-03-25T04:10:42;1.00;1.00;0.00
76049;PMS7003;64967;50.234;19.224;2024-03-25T04:13:09;2.00;1.00;1.00
76049;PMS7003;64967;50.234;19.224;2024-03-25T04:15:35;1.50;1.00;1.00
76049;PMS7003;64967;50.234;19.224;2024-03-25T04:18:01;3.00;2.50;2.00
76049;PMS7003;64967;50.234;19.224;2024-03-25T04:20:27;3.00;1.25;0.00
76049;PMS7003;64967;50.234;19.224;2024-03-25T04:22:56;2.25;2.00;2.00
76049;PMS7003;64967;50.234;19.224;2024-03-25T04:25:22;3.00;2.25;2.00
76049;PMS7003;64967;50.234;19.224;2024-03-25T04:27:48;2.25;2.25;2.00
76049;PMS7003;64967;50.234;19.224;2024-03-25T04:30:14;3.50;3.50;2.50
76049;PMS7003;64967;50.234;19.224;2024-03-25T04:32:40;3.00;3.00;3.00
76049;PMS7003;64967;50.234;19.224;2024-03-25T04:35:06;2.00;2.00;2.00
76049;PMS7003;64967;50.234;19.224;2024-03-25T04:37:33;4.50;2.50;2.00
76049;PMS7003;64967;50.234;19.224;2024-03-25T04:39:59;3.50;3.50;2.75
76049;PMS7003;64967;50.234;19.224;2024-03-25T04:42:25;5.00;3.00;2.75
76049;PMS7003;64967;50.234;19.224;2024-03-25T04:44:51;4.00;3.00;2.00
76049;PMS7003;64967;50.234;19.224;2024-03-25T04:47:17;2.50;2.50;2.00
76049;PMS7003;64967;50.234;19.224;2024-03-25T04:49:43;5.50;4.50;3.00
76049;PMS7003;64967;50.234;19.224;2024-03-25T04:52:10;4.00;2.75;2.50
76049;PMS7003;64967;50.234;19.224;2024-03-25T04:54:38;5.25;5.00;3.00
76049;PMS7003;64967;50.234;19.224;2024-03-25T04:57:04;3.00;2.00;2.00
76049;PMS7003;64967;50.234;19.224;2024-03-25T04:59:31;6.50;5.00;3.00
76049;PMS7003;64967;50.234;19.224;2024-03-25T05:01:57;6.00;5.25;5.00
76049;PMS7003;64967;50.234;19.224;2024-03-25T05:04:23;10.50;7.00;5.75
76049;PMS7003;64967;50.234;19.224;2024-03-25T05:06:49;6.75;6.00;5.50
76049;PMS7003;64967;50.234;19.224;2024-03-25T05:09:15;8.25;6.50;4.00
76049;PMS7003;64967;50.234;19.224;2024-03-25T05:11:41;9.00;7.50;6.25
76049;PMS7003;64967;50.234;19.224;2024-03-25T05:14:07;8.00;6.75;6.00
76049;PMS7003;64967;50.234;19.224;2024-03-25T05:16:33;10.50;8.50;6.00
76049;PMS7003;64967;50.234;19.224;2024-03-25T05:18:58;8.00;8.00;6.25
76049;PMS7003;64967;50.234;19.224;2024-03-25T05:21:24;10.00;9.00;6.50
76049;PMS7003;64967;50.234;19.224;2024-03-25T05:23:50;9.00;9.00;7.00
76049;PMS7003;64967;50.234;19.224;2024-03-25T05:26:16;6.00;5.00;4.50
76049;PMS7003;64967;50.234;19.224;2024-03-25T05:28:41;10.25;6.25;6.00
76049;PMS7003;64967;50.234;19.224;2024-03-25T05:31:07;9.50;6.00;5.75
76049;PMS7003;64967;50.234;19.224;2024-03-25T05:33:34;8.00;5.25;5.00
76049;PMS7003;64967;50.234;19.224;2024-03-25T05:36:00;6.00;5.00;4.50
76049;PMS7003;64967;50.234;19.224;2024-03-25T05:38:27;2.75;2.75;2.00
76049;PMS7003;64967;50.234;19.224;2024-03-25T05:40:53;2.00;1.75;1.50
76049;PMS7003;64967;50.234;19.224;2024-03-25T05:43:19;2.00;1.75;1.00
76049;PMS7003;64967;50.234;19.224;2024-03-25T05:45:52;2.50;1.75;1.75
76049;PMS7003;64967;50.234;19.224;2024-03-25T05:48:21;2.75;2.50;1.75
76049;PMS7003;64967;50.234;19.224;2024-03-25T05:50:58;9.25;6.75;5.50
76049;PMS7003;64967;50.234;19.224;2024-03-25T05:53:27;6.25;5.50;3.00
76049;PMS7003;64967;50.234;19.224;2024-03-25T05:55:53;5.00;2.00;2.00
76049;PMS7003;64967;50.234;19.224;2024-03-25T05:58:19;6.75;6.25;5.00
76049;PMS7003;64967;50.234;19.224;2024-03-25T06:00:49;9.25;8.00;6.00
76049;PMS7003;64967;50.234;19.224;2024-03-25T06:03:15;8.00;7.00;6.00
76049;PMS7003;64967;50.234;19.224;2024-03-25T06:05:42;11.00;8.00;5.50
76049;PMS7003;64967;50.234;19.224;2024-03-25T06:08:07;6.50;5.50;5.00
76049;PMS7003;64967;50.234;19.224;2024-03-25T06:10:41;11.00;9.00;5.00
76049;PMS7003;64967;50.234;19.224;2024-03-25T06:13:07;14.00;11.00;9.00
76049;PMS7003;64967;50.234;19.224;2024-03-25T06:15:32;11.00;10.00;7.00
76049;PMS7003;64967;50.234;19.224;2024-03-25T06:17:58;9.25;7.00;6.25
76049;PMS7003;64967;50.234;19.224;2024-03-25T06:20:23;9.50;8.00;6.25
76049;PMS7003;64967;50.234;19.224;2024-03-25T06:22:49;9.25;7.75;6.00
76049;PMS7003;64967;50.234;19.224;2024-03-25T06:25:16;13.25;9.50;7.25
76049;PMS7003;64967;50.234;19.224;2024-03-25T06:27:42;11.00;9.00;6.50
76049;PMS7003;64967;50.234;19.224;2024-03-25T06:30:09;9.75;8.00;7.00
76049;PMS7003;64967;50.234;19.224;2024-03-25T06:32:54;10.75;8.50;6.75
76049;PMS7003;64967;50.234;19.224;2024-03-25T06:35:38;14.50;12.75;10.50
76049;PMS7003;64967;50.234;19.224;2024-03-25T06:38:04;11.25;11.00;9.50
76049;PMS7003;64967;50.234;19.224;2024-03-25T06:40:29;10.50;10.00;7.75
76049;PMS7003;64967;50.234;19.224;2024-03-25T06:42:56;9.50;7.00;6.00
76049;PMS7003;64967;50.234;19.224;2024-03-25T06:45:22;11.75;7.75;6.75
76049;PMS7003;64967;50.234;19.224;2024-03-25T06:47:48;14.25;12.25;10.00
76049;PMS7003;64967;50.234;19.224;2024-03-25T06:50:14;13.50;11.50;7.75
76049;PMS7003;64967;50.234;19.224;2024-03-25T06:52:40;16.00;11.75;9.50
76049;PMS7003;64967;50.234;19.224;2024-03-25T06:55:05;10.50;10.50;7.00
76049;PMS7003;64967;50.234;19.224;2024-03-25T06:57:31;11.75;10.00;7.00
76049;PMS7003;64967;50.234;19.224;2024-03-25T06:59:57;12.00;10.75;8.25
76049;PMS7003;64967;50.234;19.224;2024-03-25T07:02:23;10.75;9.50;6.25
76049;PMS7003;64967;50.234;19.224;2024-03-25T07:04:49;11.00;11.00;8.00
76049;PMS7003;64967;50.234;19.224;2024-03-25T07:07:14;10.00;9.75;6.75
76049;PMS7003;64967;50.234;19.224;2024-03-25T07:09:40;11.25;10.50;7.00
76049;PMS7003;64967;50.234;19.224;2024-03-25T07:12:06;8.00;7.00;6.00
76049;PMS7003;64967;50.234;19.224;2024-03-25T07:14:32;13.50;12.00;8.75
76049;PMS7003;64967;50.234;19.224;2024-03-25T07:16:58;12.00;11.00;8.00
76049;PMS7003;64967;50.234;19.224;2024-03-25T07:19:24;11.00;11.00;7.25
76049;PMS7003;64967;50.234;19.224;2024-03-25T07:21:49;14.25;12.75;8.25
76049;PMS7003;64967;50.234;19.224;2024-03-25T07:24:15;8.00;8.00;7.00
76049;PMS7003;64967;50.234;19.224;2024-03-25T07:26:41;10.50;9.25;6.00
76049;PMS7003;64967;50.234;19.224;2024-03-25T07:29:06;9.25;8.50;7.00
76049;PMS7003;64967;50.234;19.224;2024-03-25T07:31:32;11.00;10.00;7.75
76049;PMS7003;64967;50.234;19.224;2024-03-25T07:33:58;13.00;12.00;9.00
76049;PMS7003;64967;50.234;19.224;2024-03-25T07:36:24;13.00;11.75;8.75
76049;PMS7003;64967;50.234;19.224;2024-03-25T07:38:49;12.25;11.00;7.50
76049;PMS7003;64967;50.234;19.224;2024-03-25T07:41:15;16.50;13.00;9.50
76049;PMS7003;64967;50.234;19.224;2024-03-25T07:43:41;10.50;9.25;8.00
76049;PMS7003;64967;50.234;19.224;2024-03-25T07:46:06;13.00;12.25;8.50
76049;PMS7003;64967;50.234;19.224;2024-03-25T07:48:32;16.75;13.00;8.00
76049;PMS7003;64967;50.234;19.224;2024-03-25T07:50:57;11.00;10.00;8.00
76049;PMS7003;64967;50.234;19.224;2024-03-25T07:53:23;8.00;7.00;6.25
76049;PMS7003;64967;50.234;19.224;2024-03-25T07:55:48;16.00;10.75;6.50
76049;PMS7003;64967;50.234;19.224;2024-03-25T07:58:17;14.50;12.50;9.25
76049;PMS7003;64967;50.234;19.224;2024-03-25T08:00:42;12.00;12.00;8.00
76049;PMS7003;64967;50.234;19.224;2024-03-25T08:03:08;12.75;12.25;9.25
76049;PMS7003;64967;50.234;19.224;2024-03-25T08:05:33;12.00;10.50;7.75
76049;PMS7003;64967;50.234;19.224;2024-03-25T08:07:59;10.75;9.00;7.25
76049;PMS7003;64967;50.234;19.224;2024-03-25T08:10:25;12.25;10.50;8.00
76049;PMS7003;64967;50.234;19.224;2024-03-25T08:12:50;13.75;12.25;9.00
76049;PMS7003;64967;50.234;19.224;2024-03-25T08:15:16;13.50;11.50;7.75
76049;PMS7003;64967;50.234;19.224;2024-03-25T08:17:42;12.00;12.00;9.00
76049;PMS7003;64967;50.234;19.224;2024-03-25T08:20:07;13.25;12.75;9.00
76049;PMS7003;64967;50.234;19.224;2024-03-25T08:22:33;19.75;14.75;11.50
76049;PMS7003;64967;50.234;19.224;2024-03-25T08:24:59;12.75;11.50;8.25
76049;PMS7003;64967;50.234;19.224;2024-03-25T08:27:25;17.75;15.00;10.00
76049;PMS7003;64967;50.234;19.224;2024-03-25T08:29:50;14.50;13.50;10.75
76049;PMS7003;64967;50.234;19.224;2024-03-25T08:32:19;15.75;13.25;10.75
76049;PMS7003;64967;50.234;19.224;2024-03-25T08:34:44;13.25;11.00;8.75
76049;PMS7003;64967;50.234;19.224;2024-03-25T08:37:10;16.00;13.50;11.25
76049;PMS7003;64967;50.234;19.224;2024-03-25T08:39:36;13.00;12.00;8.75
76049;PMS7003;64967;50.234;19.224;2024-03-25T08:42:02;12.00;12.00;8.75
76049;PMS7003;64967;50.234;19.224;2024-03-25T08:44:28;17.00;15.75;11.00
76049;PMS7003;64967;50.234;19.224;2024-03-25T08:46:53;14.50;13.00;10.00
76049;PMS7003;64967;50.234;19.224;2024-03-25T08:49:19;12.25;12.00;8.50
76049;PMS7003;64967;50.234;19.224;2024-03-25T08:51:44;17.25;16.00;12.00
76049;PMS7003;64967;50.234;19.224;2024-03-25T08:54:10;17.00;13.00;11.00
76049;PMS7003;64967;50.234;19.224;2024-03-25T08:56:36;17.25;15.25;11.50
76049;PMS7003;64967;50.234;19.224;2024-03-25T08:59:01;16.00;15.00;11.00
76049;PMS7003;64967;50.234;19.224;2024-03-25T09:01:27;17.00;15.50;12.00
76049;PMS7003;64967;50.234;19.224;2024-03-25T09:03:53;17.75;13.00;11.50
76049;PMS7003;64967;50.234;19.224;2024-03-25T09:06:19;18.75;15.00;10.00
76049;PMS7003;64967;50.234;19.224;2024-03-25T09:08:44;18.50;17.75;14.00
76049;PMS7003;64967;50.234;19.224;2024-03-25T09:11:28;15.00;13.00;9.00
76049;PMS7003;64967;50.234;19.224;2024-03-25T09:13:54;17.25;14.00;10.50
76049;PMS7003;64967;50.234;19.224;2024-03-25T09:16:20;12.25;12.00;9.00
76049;PMS7003;64967;50.234;19.224;2024-03-25T09:18:46;12.50;10.75;9.50
76049;PMS7003;64967;50.234;19.224;2024-03-25T09:21:15;9.00;8.00;7.00
76049;PMS7003;64967;50.234;19.224;2024-03-25T09:23:40;8.00;7.00;6.25
76049;PMS7003;64967;50.234;19.224;2024-03-25T09:26:06;7.25;7.25;6.00
76049;PMS7003;64967;50.234;19.224;2024-03-25T09:28:32;8.75;8.50;7.00
76049;PMS7003;64967;50.234;19.224;2024-03-25T09:30:57;6.75;6.75;6.00
76049;PMS7003;64967;50.234;19.224;2024-03-25T09:33:23;8.75;7.00;6.00
76049;PMS7003;64967;50.234;19.224;2024-03-25T09:35:49;8.25;7.75;5.25
76049;PMS7003;64967;50.234;19.224;2024-03-25T09:38:15;7.00;6.75;6.00
76049;PMS7003;64967;50.234;19.224;2024-03-25T09:40:40;7.25;7.00;6.00
76049;PMS7003;64967;50.234;19.224;2024-03-25T09:43:06;9.25;7.25;6.00
76049;PMS7003;64967;50.234;19.224;2024-03-25T09:45:42;7.50;7.50;6.00
76049;PMS7003;64967;50.234;19.224;2024-03-25T09:48:13;12.75;11.25;9.00
76049;PMS7003;64967;50.234;19.224;2024-03-25T09:50:42;9.25;8.00;7.00
76049;PMS7003;64967;50.234;19.224;2024-03-25T09:53:09;7.50;7.50;6.00
76049;PMS7003;64967;50.234;19.224;2024-03-25T09:55:35;7.75;7.00;6.00
76049;PMS7003;64967;50.234;19.224;2024-03-25T09:58:03;6.00;6.00;4.00
76049;PMS7003;64967;50.234;19.224;2024-03-25T10:00:30;4.50;3.50;3.50
76049;PMS7003;64967;50.234;19.224;2024-03-25T10:02:55;9.00;5.00;4.00
76049;PMS7003;64967;50.234;19.224;2024-03-25T10:05:21;4.00;4.00;3.75
76049;PMS7003;64967;50.234;19.224;2024-03-25T10:07:47;6.00;6.00;4.50
76049;PMS7003;64967;50.234;19.224;2024-03-25T10:10:13;6.50;4.50;4.00
76049;PMS7003;64967;50.234;19.224;2024-03-25T10:12:38;7.25;6.75;4.50
76049;PMS7003;64967;50.234;19.224;2024-03-25T10:15:06;5.00;4.00;4.00
76049;PMS7003;64967;50.234;19.224;2024-03-25T10:17:32;5.00;5.00;3.75
76049;PMS7003;64967;50.234;19.224;2024-03-25T10:19:57;4.00;4.00;3.25
76049;PMS7003;64967;50.234;19.224;2024-03-25T10:22:23;6.00;4.50;3.00
76049;PMS7003;64967;50.234;19.224;2024-03-25T10:24:49;5.75;4.00;3.50
76049;PMS7003;64967;50.234;19.224;2024-03-25T10:27:20;5.75;5.75;4.00
76049;PMS7003;64967;50.234;19.224;2024-03-25T10:29:47;6.50;6.50;4.00
76049;PMS7003;64967;50.234;19.224;2024-03-25T10:32:13;6.00;6.00;4.00
76049;PMS7003;64967;50.234;19.224;2024-03-25T10:34:40;7.75;5.75;4.00
76049;PMS7003;64967;50.234;19.224;2024-03-25T10:37:07;4.00;4.00;4.00
76049;PMS7003;64967;50.234;19.224;2024-03-25T10:39:36;8.75;7.00;5.50
76049;PMS7003;64967;50.234;19.224;2024-03-25T10:42:08;6.75;6.00;4.00
76049;PMS7003;64967;50.234;19.224;2024-03-25T10:44:39;6.00;6.00;4.00
76049;PMS7003;64967;50.234;19.224;2024-03-25T10:47:05;7.75;7.00;6.50
76049;PMS7003;64967;50.234;19.224;2024-03-25T10:49:49;6.00;6.00;4.00
76049;PMS7003;64967;50.234;19.224;2024-03-25T10:52:20;5.50;5.50;4.00
76049;PMS7003;64967;50.234;19.224;2024-03-25T10:54:47;4.00;4.00;4.00
76049;PMS7003;64967;50.234;19.224;2024-03-25T10:57:14;4.00;4.00;3.75
76049;PMS7003;64967;50.234;19.224;2024-03-25T10:59:42;3.75;3.75;3.00
76049;PMS7003;64967;50.234;19.224;2024-03-25T11:02:09;7.25;6.00;4.00
76049;PMS7003;64967;50.234;19.224;2024-03-25T11:04:35;7.25;6.50;6.00
76049;PMS7003;64967;50.234;19.224;2024-03-25T11:09:37;7.00;5.25;4.00
76049;PMS7003;64967;50.234;19.224;2024-03-25T11:12:03;5.25;4.50;4.00
76049;PMS7003;64967;50.234;19.224;2024-03-25T11:14:30;8.75;6.75;5.00
76049;PMS7003;64967;50.234;19.224;2024-03-25T11:16:57;7.00;4.00;4.00
76049;PMS7003;64967;50.234;19.224;2024-03-25T11:19:25;6.75;6.25;4.00
76049;PMS7003;64967;50.234;19.224;2024-03-25T11:21:52;3.25;3.25;3.00
76049;PMS7003;64967;50.234;19.224;2024-03-25T11:24:27;2.00;2.00;1.25
76049;PMS7003;64967;50.234;19.224;2024-03-25T11:26:54;3.50;1.00;1.00
76049;PMS7003;64967;50.234;19.224;2024-03-25T11:29:19;2.50;1.25;1.00
76049;PMS7003;64967;50.234;19.224;2024-03-25T11:31:45;2.75;2.00;2.00
76049;PMS7003;64967;50.234;19.224;2024-03-25T11:34:14;6.50;5.75;3.50
76049;PMS7003;64967;50.234;19.224;2024-03-25T11:36:40;4.50;3.75;3.00
76049;PMS7003;64967;50.234;19.224;2024-03-25T11:39:06;7.00;4.50;3.50
76049;PMS7003;64967;50.234;19.224;2024-03-25T11:41:41;3.25;2.50;2.00
76049;PMS7003;64967;50.234;19.224;2024-03-25T11:44:08;7.00;5.50;4.50
76049;PMS7003;64967;50.234;19.224;2024-03-25T11:46:38;6.25;6.25;5.00
76049;PMS7003;64967;50.234;19.224;2024-03-25T11:49:07;7.00;6.00;4.00
76049;PMS7003;64967;50.234;19.224;2024-03-25T11:51:37;6.75;6.00;4.00
76049;PMS7003;64967;50.234;19.224;2024-03-25T11:54:06;11.00;9.75;7.25
76049;PMS7003;64967;50.234;19.224;2024-03-25T11:56:32;7.25;6.00;4.50
76049;PMS7003;64967;50.234;19.224;2024-03-25T11:59:01;14.50;11.75;8.25
76049;PMS7003;64967;50.234;19.224;2024-03-25T12:01:28;7.50;7.00;5.50
76049;PMS7003;64967;50.234;19.224;2024-03-25T12:03:54;6.75;6.00;4.00
76049;PMS7003;64967;50.234;19.224;2024-03-25T12:06:20;4.00;4.00;4.00
76049;PMS7003;64967;50.234;19.224;2024-03-25T12:08:46;4.00;4.00;3.00
76049;PMS7003;64967;50.234;19.224;2024-03-25T12:11:30;4.50;4.00;3.25
76049;PMS7003;64967;50.234;19.224;2024-03-25T12:13:56;4.00;3.50;2.25
76049;PMS7003;64967;50.234;19.224;2024-03-25T12:16:23;3.25;3.25;3.00
76049;PMS7003;64967;50.234;19.224;2024-03-25T12:18:49;3.00;3.00;2.75
76049;PMS7003;64967;50.234;19.224;2024-03-25T12:21:15;4.75;3.00;2.00
76049;PMS7003;64967;50.234;19.224;2024-03-25T12:23:41;2.75;2.00;1.75
76049;PMS7003;64967;50.234;19.224;2024-03-25T12:26:07;4.50;4.00;3.00
76049;PMS7003;64967;50.234;19.224;2024-03-25T12:28:33;6.00;4.00;3.00
76049;PMS7003;64967;50.234;19.224;2024-03-25T12:31:06;2.00;2.00;2.00
76049;PMS7003;64967;50.234;19.224;2024-03-25T12:33:42;2.75;2.00;1.75
76049;PMS7003;64967;50.234;19.224;2024-03-25T12:36:13;1.00;0.00;0.00
76049;PMS7003;64967;50.234;19.224;2024-03-25T12:38:39;1.75;0.75;0.00
76049;PMS7003;64967;50.234;19.224;2024-03-25T12:41:05;2.50;2.00;2.00
76049;PMS7003;64967;50.234;19.224;2024-03-25T12:43:33;0.00;0.00;0.00
76049;PMS7003;64967;50.234;19.224;2024-03-25T12:46:00;2.00;1.50;1.00
76049;PMS7003;64967;50.234;19.224;2024-03-25T12:48:26;2.00;2.00;2.00
76049;PMS7003;64967;50.234;19.224;2024-03-25T12:50:52;1.50;1.50;1.50
76049;PMS7003;64967;50.234;19.224;2024-03-25T12:53:19;4.00;2.50;1.75
76049;PMS7003;64967;50.234;19.224;2024-03-25T12:55:45;6.75;6.50;4.00
76049;PMS7003;64967;50.234;19.224;2024-03-25T12:58:11;7.00;7.00;4.00
76049;PMS7003;64967;50.234;19.224;2024-03-25T13:00:37;8.00;7.50;6.25
76049;PMS7003;64967;50.234;19.224;2024-03-25T13:03:04;8.25;7.75;6.00
76049;PMS7003;64967;50.234;19.224;2024-03-25T13:05:31;6.75;6.50;4.00
76049;PMS7003;64967;50.234;19.224;2024-03-25T13:07:57;9.25;8.25;6.00
76049;PMS7003;64967;50.234;19.224;2024-03-25T13:10:23;8.00;6.50;6.00
76049;PMS7003;64967;50.234;19.224;2024-03-25T13:12:49;8.50;7.00;6.00
76049;PMS7003;64967;50.234;19.224;2024-03-25T13:15:14;7.00;6.50;6.00
76049;PMS7003;64967;50.234;19.224;2024-03-25T13:17:40;6.50;4.50;4.00
76049;PMS7003;64967;50.234;19.224;2024-03-25T13:20:06;6.50;4.00;3.00
76049;PMS7003;64967;50.234;19.224;2024-03-25T13:22:32;5.25;4.00;3.00
76049;PMS7003;64967;50.234;19.224;2024-03-25T13:24:58;7.00;5.25;4.00
76049;PMS7003;64967;50.234;19.224;2024-03-25T13:27:25;4.00;3.50;3.00
76049;PMS7003;64967;50.234;19.224;2024-03-25T13:29:50;2.50;2.00;2.00
76049;PMS7003;64967;50.234;19.224;2024-03-25T13:32:18;8.25;3.00;3.00
76049;PMS7003;64967;50.234;19.224;2024-03-25T13:34:44;4.00;3.00;3.00
76049;PMS7003;64967;50.234;19.224;2024-03-25T13:37:10;4.00;3.00;3.00
76049;PMS7003;64967;50.234;19.224;2024-03-25T13:39:36;4.00;4.00;3.75
76049;PMS7003;64967;50.234;19.224;2024-03-25T13:42:02;3.00;3.00;2.00
76049;PMS7003;64967;50.234;19.224;2024-03-25T13:44:28;2.50;2.50;2.00
76049;PMS7003;64967;50.234;19.224;2024-03-25T13:46:54;7.75;4.00;3.00
76049;PMS7003;64967;50.234;19.224;2024-03-25T13:49:20;4.00;4.00;3.00
76049;PMS7003;64967;50.234;19.224;2024-03-25T13:51:47;5.25;4.50;3.75
76049;PMS7003;64967;50.234;19.224;2024-03-25T13:54:13;7.25;6.75;5.50
76049;PMS7003;64967;50.234;19.224;2024-03-25T13:56:39;6.25;6.00;4.00
76049;PMS7003;64967;50.234;19.224;2024-03-25T13:59:07;8.75;8.75;7.75
76049;PMS7003;64967;50.234;19.224;2024-03-25T14:01:32;9.75;9.00;7.00
76049;PMS7003;64967;50.234;19.224;2024-03-25T14:03:58;7.25;7.25;4.75